createdAt,value
2018-12-31T00:01:10.251Z,26.70
2018-12-31T00:03:41.036Z,27.80
2018-12-31T00:06:11.760Z,28.30
2018-12-31T00:08:42.569Z,28.23
2018-12-31T00:11:13.394Z,31.40
2018-12-31T00:13:44.156Z,34.23
2018-12-31T00:16:14.897Z,32.60
2018-12-31T00:18:45.729Z,33.10
2018-12-31T00:21:16.484Z,36.47
2018-12-31T00:23:47.265Z,36.20
2018-12-31T00:26:18.041Z,35.10
2018-12-31T00:28:48.916Z,35.83
2018-12-31T00:31:19.761Z,32.30
2018-12-31T00:33:50.557Z,32.43
2018-12-31T00:36:21.392Z,30.73
2018-12-31T00:38:52.155Z,30.40
2018-12-31T00:41:22.901Z,29.73
2018-12-31T00:43:53.787Z,31.60
2018-12-31T00:46:24.555Z,31.47
2018-12-31T00:48:55.337Z,29.57
2018-12-31T00:51:26.074Z,29.53
2018-12-31T00:53:56.942Z,27.67
2018-12-31T00:56:27.694Z,29.27
2018-12-31T00:58:58.475Z,29.23
2018-12-31T01:01:29.217Z,27.40
2018-12-31T01:04:00.004Z,26.93
2018-12-31T01:06:30.753Z,26.73
2018-12-31T01:09:01.588Z,26.57
2018-12-31T01:11:32.498Z,23.93
2018-12-31T01:14:03.322Z,27.63
2018-12-31T01:16:34.065Z,24.43
2018-12-31T01:19:04.825Z,24.87
2018-12-31T01:21:35.744Z,25.47
2018-12-31T01:24:06.526Z,25.17
2018-12-31T01:26:37.298Z,25.73
2018-12-31T01:29:08.092Z,25.83
2018-12-31T01:31:38.845Z,23.50
2018-12-31T01:34:10.226Z,25.33
2018-12-31T01:36:40.984Z,26.13
2018-12-31T01:39:11.744Z,23.93
2018-12-31T01:41:42.473Z,23.70
2018-12-31T01:44:13.423Z,24.50
2018-12-31T01:46:44.176Z,23.17
2018-12-31T01:49:14.966Z,22.30
2018-12-31T01:51:45.690Z,21.73
2018-12-31T01:54:16.471Z,20.07
2018-12-31T01:56:47.210Z,19.90
2018-12-31T01:59:17.992Z,18.63
2018-12-31T02:01:48.730Z,20.60
2018-12-31T02:04:19.573Z,20.40
2018-12-31T02:06:50.332Z,19.57
2018-12-31T02:09:21.098Z,19.57
2018-12-31T02:11:51.842Z,19.40
2018-12-31T02:14:22.668Z,20.53
2018-12-31T02:16:53.412Z,19.53
2018-12-31T02:19:24.189Z,19.00
2018-12-31T02:21:54.991Z,20.73
2018-12-31T02:24:25.759Z,20.43
2018-12-31T02:26:56.527Z,22.00
2018-12-31T02:29:27.309Z,22.20
2018-12-31T02:31:58.337Z,22.90
2018-12-31T02:34:29.125Z,22.83
2018-12-31T02:36:59.864Z,24.17
2018-12-31T02:39:30.787Z,23.10
2018-12-31T02:42:01.535Z,24.87
2018-12-31T02:44:32.287Z,24.90
2018-12-31T02:47:03.029Z,26.10
2018-12-31T02:49:33.865Z,24.87
2018-12-31T02:52:04.623Z,24.73
2018-12-31T02:54:35.521Z,25.47
2018-12-31T02:57:06.266Z,27.60
2018-12-31T02:59:37.028Z,27.63
2018-12-31T03:02:07.793Z,26.83
2018-12-31T03:04:38.590Z,27.80
2018-12-31T03:07:09.373Z,25.87
2018-12-31T03:09:40.130Z,26.70
2018-12-31T03:12:10.886Z,25.77
2018-12-31T03:14:41.667Z,25.47
2018-12-31T03:17:12.517Z,26.03
2018-12-31T03:19:43.288Z,24.93
2018-12-31T03:22:14.070Z,25.83
2018-12-31T03:24:44.859Z,25.10
2018-12-31T03:27:15.731Z,25.83
2018-12-31T03:29:46.633Z,24.63
2018-12-31T03:32:17.389Z,25.63
2018-12-31T03:34:48.177Z,24.20
2018-12-31T03:37:18.916Z,27.00
2018-12-31T03:39:49.849Z,27.13
2018-12-31T03:42:20.671Z,26.90
2018-12-31T03:44:51.408Z,27.53
2018-12-31T03:47:22.166Z,27.13
2018-12-31T03:49:52.915Z,25.60
2018-12-31T03:52:23.753Z,22.90
2018-12-31T03:55:02.899Z,24.60
2018-12-31T03:57:41.026Z,24.83
2018-12-31T04:00:11.736Z,23.87
2018-12-31T04:02:42.480Z,24.07
2018-12-31T04:05:13.259Z,25.23
2018-12-31T04:07:44.026Z,24.20
2018-12-31T04:10:15.019Z,25.50
2018-12-31T04:12:45.914Z,25.47
2018-12-31T04:15:16.697Z,23.83
2018-12-31T04:17:47.449Z,24.60
2018-12-31T04:20:18.216Z,25.53
2018-12-31T04:22:48.996Z,25.17
2018-12-31T04:25:19.767Z,25.83
2018-12-31T04:27:50.628Z,24.40
2018-12-31T04:30:21.486Z,25.30
2018-12-31T04:32:52.235Z,24.73
2018-12-31T04:35:23.067Z,25.53
2018-12-31T04:37:53.810Z,23.83
2018-12-31T04:40:24.566Z,25.63
2018-12-31T04:42:55.348Z,27.50
2018-12-31T04:45:26.206Z,27.73
2018-12-31T04:47:56.947Z,27.67
2018-12-31T04:50:27.718Z,26.30
2018-12-31T04:52:58.456Z,26.47
2018-12-31T04:55:29.323Z,28.27
2018-12-31T04:58:00.078Z,27.53
2018-12-31T05:00:30.858Z,27.47
2018-12-31T05:03:01.856Z,28.60
2018-12-31T05:05:32.627Z,27.77
2018-12-31T05:08:03.403Z,29.70
2018-12-31T05:10:34.234Z,30.80
2018-12-31T05:13:05.312Z,28.63
2018-12-31T05:15:36.103Z,28.80
2018-12-31T05:18:06.934Z,30.47
2018-12-31T05:20:37.720Z,31.27
2018-12-31T05:23:08.512Z,30.80
2018-12-31T05:25:39.469Z,33.57
2018-12-31T05:28:10.221Z,32.50
2018-12-31T05:30:40.996Z,30.53
2018-12-31T05:33:11.747Z,30.63
2018-12-31T05:35:42.535Z,30.73
2018-12-31T05:38:13.293Z,32.37
2018-12-31T05:40:44.288Z,31.37
2018-12-31T05:43:15.106Z,30.17
2018-12-31T05:45:46.318Z,32.70
2018-12-31T05:48:17.061Z,33.13
2018-12-31T05:50:47.842Z,33.17
2018-12-31T05:53:18.603Z,31.47
2018-12-31T05:55:49.365Z,30.57
2018-12-31T05:58:20.253Z,31.53
2018-12-31T06:00:51.038Z,30.80
2018-12-31T06:03:21.815Z,31.97
2018-12-31T06:05:52.701Z,32.43
2018-12-31T06:08:23.753Z,31.93
2018-12-31T06:10:54.533Z,29.80
2018-12-31T06:13:25.296Z,30.60
2018-12-31T06:15:56.074Z,30.03
2018-12-31T06:18:26.819Z,29.23
2018-12-31T06:20:58.279Z,27.83
2018-12-31T06:23:29.034Z,27.67
2018-12-31T06:25:59.882Z,29.00
2018-12-31T06:28:30.617Z,30.47
2018-12-31T06:31:01.833Z,31.50
2018-12-31T06:33:32.602Z,30.17
2018-12-31T06:36:03.350Z,34.23
2018-12-31T06:38:34.164Z,36.70
2018-12-31T06:41:04.946Z,34.67
2018-12-31T06:43:35.730Z,31.67
2018-12-31T06:46:06.466Z,29.07
2018-12-31T06:48:37.253Z,28.90
2018-12-31T06:51:08.017Z,28.10
2018-12-31T06:53:38.767Z,28.27
2018-12-31T06:56:09.512Z,29.90
2018-12-31T06:58:40.290Z,28.10
2018-12-31T07:01:11.035Z,29.10
2018-12-31T07:03:41.818Z,28.87
2018-12-31T07:06:12.555Z,30.33
2018-12-31T07:08:43.464Z,32.07
2018-12-31T07:11:14.191Z,31.90
2018-12-31T07:13:44.979Z,31.23
2018-12-31T07:16:15.746Z,29.37
2018-12-31T07:18:46.538Z,26.17
2018-12-31T07:21:17.287Z,27.43
2018-12-31T07:23:48.074Z,30.17
2018-12-31T07:26:18.933Z,28.53
2018-12-31T07:28:49.728Z,29.40
2018-12-31T07:31:20.503Z,28.20
2018-12-31T07:33:51.270Z,27.30
2018-12-31T07:36:22.297Z,27.70
2018-12-31T07:38:53.109Z,27.83
2018-12-31T07:41:23.799Z,29.43
2018-12-31T07:43:54.529Z,27.93
2018-12-31T07:46:25.250Z,25.03
2018-12-31T07:48:55.955Z,28.10
2018-12-31T07:51:26.647Z,26.70
2018-12-31T07:53:57.417Z,29.40
2018-12-31T07:56:28.131Z,27.90
2018-12-31T07:58:58.882Z,27.73
2018-12-31T08:01:29.581Z,28.77
2018-12-31T08:04:00.271Z,27.53
2018-12-31T08:06:30.964Z,27.90
2018-12-31T08:09:02.990Z,27.70
2018-12-31T08:11:33.699Z,28.30
2018-12-31T08:14:04.428Z,29.17
2018-12-31T08:16:35.118Z,27.03
2018-12-31T08:19:06.017Z,27.83
2018-12-31T08:21:36.712Z,40.57
2018-12-31T08:24:07.429Z,124.70
2018-12-31T08:26:38.137Z,110.17
2018-12-31T08:29:08.958Z,109.77
2018-12-31T08:31:39.662Z,83.97
2018-12-31T08:34:10.397Z,68.03
2018-12-31T08:36:41.105Z,72.67
2018-12-31T08:39:11.952Z,61.97
2018-12-31T08:41:42.682Z,55.70
2018-12-31T08:44:13.475Z,43.30
2018-12-31T08:46:44.193Z,35.93
2018-12-31T08:49:14.928Z,32.53
2018-12-31T08:51:45.746Z,31.57
2018-12-31T08:54:16.487Z,30.70
2018-12-31T08:56:47.205Z,29.50
2018-12-31T08:59:17.962Z,31.03
2018-12-31T09:01:48.728Z,30.03
2018-12-31T09:04:19.482Z,28.57
2018-12-31T09:06:50.248Z,28.23
2018-12-31T09:09:21.069Z,27.13
2018-12-31T09:11:51.787Z,28.60
2018-12-31T09:14:22.497Z,28.13
2018-12-31T09:16:53.183Z,26.53
2018-12-31T09:19:23.903Z,24.87
2018-12-31T09:21:54.609Z,27.53
2018-12-31T09:24:25.488Z,28.33
2018-12-31T09:26:56.271Z,30.07
2018-12-31T09:29:26.991Z,28.80
2018-12-31T09:31:57.668Z,29.90
2018-12-31T09:34:28.416Z,29.93
2018-12-31T09:36:59.136Z,28.90
2018-12-31T09:39:29.872Z,29.53
2018-12-31T09:42:00.548Z,26.13
2018-12-31T09:44:31.282Z,28.30
2018-12-31T09:47:02.110Z,26.50
2018-12-31T09:49:32.832Z,28.23
2018-12-31T09:52:03.552Z,27.40
2018-12-31T09:54:34.384Z,27.60
2018-12-31T09:57:05.158Z,27.30
2018-12-31T09:59:35.879Z,28.37
2018-12-31T10:02:06.856Z,27.23
2018-12-31T10:04:37.700Z,27.17
2018-12-31T10:07:08.390Z,27.60
2018-12-31T10:09:39.173Z,25.93
2018-12-31T10:12:09.871Z,25.13
2018-12-31T10:14:40.607Z,28.57
2018-12-31T10:17:11.320Z,26.37
2018-12-31T10:19:42.053Z,28.27
2018-12-31T10:22:12.762Z,28.10
2018-12-31T10:24:43.492Z,26.70
2018-12-31T10:27:14.327Z,27.83
2018-12-31T10:29:45.080Z,26.93
2018-12-31T10:32:15.796Z,27.47
2018-12-31T10:34:46.587Z,28.60
2018-12-31T10:37:17.366Z,29.80
2018-12-31T10:39:48.037Z,29.17
2018-12-31T10:42:18.735Z,26.83
2018-12-31T10:44:49.472Z,25.23
2018-12-31T10:47:20.210Z,25.93
2018-12-31T10:49:51.015Z,25.77
2018-12-31T10:52:21.725Z,25.67
2018-12-31T10:54:52.476Z,26.23
2018-12-31T10:57:23.201Z,25.63
2018-12-31T10:59:53.959Z,26.20
2018-12-31T11:02:24.666Z,25.50
2018-12-31T11:04:55.508Z,24.67
2018-12-31T11:07:26.307Z,26.83
2018-12-31T11:09:57.174Z,28.00
2018-12-31T11:12:27.935Z,28.20
2018-12-31T11:14:58.706Z,26.53
2018-12-31T11:17:29.440Z,25.50
2018-12-31T11:20:00.249Z,25.97
2018-12-31T11:22:30.975Z,26.90
2018-12-31T11:25:02.102Z,26.60
2018-12-31T11:27:32.796Z,25.20
2018-12-31T11:30:03.524Z,27.67
2018-12-31T11:32:34.219Z,27.43
2018-12-31T11:35:04.954Z,26.37
2018-12-31T11:37:35.798Z,26.63
2018-12-31T11:40:07.355Z,24.87
2018-12-31T11:42:38.069Z,25.70
2018-12-31T11:45:09.248Z,25.17
2018-12-31T11:47:39.948Z,26.07
2018-12-31T11:50:10.683Z,27.20
2018-12-31T11:52:41.648Z,25.10
2018-12-31T11:55:12.476Z,26.70
2018-12-31T11:57:43.183Z,25.77
2018-12-31T12:00:14.114Z,24.73
2018-12-31T12:02:44.905Z,26.93
2018-12-31T12:05:15.646Z,26.50
2018-12-31T12:07:46.385Z,23.83
2018-12-31T12:10:17.202Z,23.57
2018-12-31T12:12:47.957Z,21.00
2018-12-31T12:15:18.728Z,21.63
2018-12-31T12:17:49.424Z,22.60
2018-12-31T12:20:20.384Z,23.20
2018-12-31T12:22:51.088Z,24.00
2018-12-31T12:25:21.838Z,23.20
2018-12-31T12:27:52.533Z,22.43
2018-12-31T12:30:23.280Z,21.73
2018-12-31T12:32:54.020Z,22.30
2018-12-31T12:35:24.737Z,21.07
2018-12-31T12:37:55.441Z,22.27
2018-12-31T12:40:26.166Z,22.77
2018-12-31T12:42:56.870Z,25.43
2018-12-31T12:45:27.682Z,23.17
2018-12-31T12:47:58.379Z,23.77
2018-12-31T12:50:29.126Z,22.27
2018-12-31T12:53:00.266Z,23.70
2018-12-31T12:55:31.009Z,24.57
2018-12-31T12:58:01.893Z,22.97
2018-12-31T13:00:32.717Z,23.67
2018-12-31T13:03:03.501Z,24.00
2018-12-31T13:05:34.323Z,24.37
2018-12-31T13:08:05.087Z,24.00
2018-12-31T13:10:35.909Z,24.80
2018-12-31T13:13:06.734Z,25.40
2018-12-31T13:15:37.533Z,24.37
2018-12-31T13:18:08.354Z,24.20
2018-12-31T13:20:39.179Z,24.87
2018-12-31T13:23:10.030Z,25.33
2018-12-31T13:25:41.173Z,23.63
2018-12-31T13:28:12.085Z,23.07
2018-12-31T13:30:42.891Z,22.73
2018-12-31T13:33:13.673Z,21.93
2018-12-31T13:35:45.341Z,22.80
2018-12-31T13:38:16.226Z,20.83
2018-12-31T13:40:47.004Z,22.93
2018-12-31T13:43:17.807Z,21.73
2018-12-31T13:45:48.622Z,21.53
2018-12-31T13:48:19.606Z,23.13
2018-12-31T13:50:50.425Z,23.27
2018-12-31T13:53:21.353Z,22.70
2018-12-31T13:55:52.140Z,22.63
2018-12-31T13:58:22.922Z,22.23
2018-12-31T14:00:53.786Z,22.17
2018-12-31T14:03:24.681Z,21.43
2018-12-31T14:05:55.445Z,22.60
2018-12-31T14:08:26.250Z,22.93
2018-12-31T14:10:57.148Z,22.50
2018-12-31T14:13:27.956Z,22.40
2018-12-31T14:15:58.723Z,21.93
2018-12-31T14:18:29.600Z,20.97
2018-12-31T14:21:00.659Z,21.13
2018-12-31T14:23:31.614Z,21.43
2018-12-31T14:26:02.401Z,22.97
2018-12-31T14:28:33.180Z,21.57
2018-12-31T14:31:03.945Z,21.47
2018-12-31T14:33:34.841Z,21.27
2018-12-31T14:36:05.679Z,21.63
2018-12-31T14:38:36.452Z,21.57
2018-12-31T14:41:07.378Z,23.70
2018-12-31T14:43:38.120Z,22.73
2018-12-31T14:46:08.889Z,25.27
2018-12-31T14:48:39.792Z,24.13
2018-12-31T14:51:10.560Z,23.20
2018-12-31T14:53:41.850Z,22.47
2018-12-31T14:56:12.643Z,24.07
2018-12-31T14:58:43.427Z,26.10
2018-12-31T15:01:14.339Z,27.87
2018-12-31T15:03:45.184Z,25.80
2018-12-31T15:06:16.157Z,26.53
2018-12-31T15:08:46.999Z,27.50
2018-12-31T15:11:17.865Z,27.70
2018-12-31T15:13:48.713Z,31.17
2018-12-31T15:16:19.640Z,32.50
2018-12-31T15:18:50.573Z,34.77
2018-12-31T15:21:21.453Z,31.83
2018-12-31T15:23:52.227Z,34.57
2018-12-31T15:26:23.293Z,34.63
2018-12-31T15:28:54.162Z,33.27
2018-12-31T15:31:24.851Z,30.03
2018-12-31T15:33:55.671Z,27.83
2018-12-31T15:36:26.354Z,27.73
2018-12-31T15:38:57.122Z,31.70
2018-12-31T15:41:27.853Z,30.20
2018-12-31T15:43:58.560Z,29.53
2018-12-31T15:46:29.341Z,29.80
2018-12-31T15:49:00.328Z,28.83
2018-12-31T15:51:31.077Z,31.57
2018-12-31T15:54:02.688Z,30.23
2018-12-31T15:56:33.520Z,32.20
2018-12-31T15:59:04.287Z,34.40
2018-12-31T16:01:34.992Z,32.47
2018-12-31T16:04:05.724Z,30.43
2018-12-31T16:06:36.407Z,29.83
2018-12-31T16:09:08.783Z,29.50
2018-12-31T16:11:39.782Z,29.80
2018-12-31T16:14:10.503Z,32.93
2018-12-31T16:16:41.212Z,30.90
2018-12-31T16:19:11.998Z,30.00
2018-12-31T16:21:42.639Z,29.23
2018-12-31T16:24:13.463Z,30.60
2018-12-31T16:26:44.173Z,28.37
2018-12-31T16:29:15.089Z,27.47
2018-12-31T16:31:45.929Z,32.07
2018-12-31T16:34:16.855Z,31.97
2018-12-31T16:36:47.627Z,32.87
2018-12-31T16:39:18.423Z,31.50
2018-12-31T16:41:49.186Z,32.57
2018-12-31T16:44:19.991Z,31.73
2018-12-31T16:46:50.804Z,30.23
2018-12-31T16:49:21.606Z,31.70
2018-12-31T16:51:52.385Z,32.87
2018-12-31T16:54:23.144Z,34.07
2018-12-31T16:56:54.031Z,34.30
2018-12-31T16:59:24.857Z,35.97
2018-12-31T17:01:55.647Z,34.80
2018-12-31T17:04:26.452Z,33.90
2018-12-31T17:06:57.304Z,34.63
2018-12-31T17:09:28.052Z,32.97
2018-12-31T17:11:58.887Z,32.50
2018-12-31T17:14:29.720Z,31.23
2018-12-31T17:17:00.512Z,31.60
2018-12-31T17:19:31.592Z,31.77
2018-12-31T17:22:02.482Z,32.20
2018-12-31T17:24:33.402Z,31.93
2018-12-31T17:27:04.409Z,30.87
2018-12-31T17:29:35.218Z,29.50
2018-12-31T17:32:05.970Z,23.67
2018-12-31T17:34:36.817Z,20.10
2018-12-31T17:37:07.546Z,18.50
2018-12-31T17:39:38.294Z,20.00
2018-12-31T17:42:09.822Z,19.30
2018-12-31T17:44:40.897Z,19.40
2018-12-31T17:47:11.682Z,17.97
2018-12-31T17:49:42.612Z,19.60
2018-12-31T17:52:13.451Z,18.07
2018-12-31T17:54:44.215Z,19.33
2018-12-31T17:57:15.024Z,17.17
2018-12-31T17:59:45.879Z,17.37
2018-12-31T18:02:16.656Z,16.87
2018-12-31T18:04:47.436Z,17.37
2018-12-31T18:07:18.280Z,16.40
2018-12-31T18:09:49.130Z,16.47
2018-12-31T18:12:19.858Z,16.80
2018-12-31T18:14:50.644Z,18.00
2018-12-31T18:17:21.582Z,18.33
2018-12-31T18:19:52.354Z,18.60
2018-12-31T18:22:23.099Z,19.27
2018-12-31T18:24:53.925Z,20.50
2018-12-31T18:27:24.662Z,22.07
2018-12-31T18:29:55.426Z,21.87
2018-12-31T18:32:26.174Z,21.30
2018-12-31T18:34:57.020Z,20.40
2018-12-31T18:37:28.068Z,21.60
2018-12-31T18:39:58.860Z,22.57
2018-12-31T18:42:29.738Z,21.53
2018-12-31T18:45:00.521Z,21.37
2018-12-31T18:47:31.293Z,21.43
2018-12-31T18:50:03.398Z,22.67
2018-12-31T18:52:34.167Z,22.77
2018-12-31T18:55:05.014Z,21.53
2018-12-31T18:57:35.834Z,24.23
2018-12-31T19:00:07.755Z,26.43
2018-12-31T19:02:38.499Z,28.00
2018-12-31T19:05:11.174Z,31.00
2018-12-31T19:07:41.805Z,27.70
2018-12-31T19:10:12.584Z,27.47
2018-12-31T19:12:43.309Z,27.03
2018-12-31T19:15:14.098Z,27.77
2018-12-31T19:17:44.890Z,25.63
2018-12-31T19:20:15.654Z,26.03
2018-12-31T19:22:46.782Z,27.97
2018-12-31T19:25:17.539Z,24.73
2018-12-31T19:27:48.302Z,26.47
2018-12-31T19:30:19.071Z,26.37
2018-12-31T19:32:49.898Z,26.23
2018-12-31T19:35:20.705Z,27.80
2018-12-31T19:37:51.442Z,27.27
2018-12-31T19:40:22.242Z,27.37
2018-12-31T19:42:53.121Z,28.77
2018-12-31T19:45:24.187Z,29.47
2018-12-31T19:47:55.852Z,30.30
2018-12-31T19:50:26.721Z,30.73
2018-12-31T19:52:57.493Z,31.83
2018-12-31T19:55:28.270Z,32.30
2018-12-31T19:57:59.135Z,32.27
2018-12-31T20:00:29.936Z,33.50
2018-12-31T20:03:00.633Z,32.47
2018-12-31T20:05:31.371Z,33.37
2018-12-31T20:08:02.890Z,33.73
2018-12-31T20:10:34.673Z,35.43
2018-12-31T20:13:05.430Z,35.07
2018-12-31T20:15:36.173Z,34.97
2018-12-31T20:18:06.933Z,32.43
2018-12-31T20:20:37.809Z,32.87
2018-12-31T20:23:08.541Z,33.70
2018-12-31T20:25:39.353Z,32.47
2018-12-31T20:28:10.163Z,33.77
2018-12-31T20:30:41.203Z,32.97
2018-12-31T20:33:12.019Z,33.87
2018-12-31T20:35:42.824Z,32.17
2018-12-31T20:38:13.580Z,31.03
2018-12-31T20:40:44.331Z,31.10
2018-12-31T20:43:16.676Z,31.27
2018-12-31T20:45:47.456Z,31.77
2018-12-31T20:48:18.370Z,32.97
2018-12-31T20:50:49.144Z,29.93
2018-12-31T20:53:19.932Z,32.67
2018-12-31T20:55:50.870Z,28.60
2018-12-31T20:58:21.673Z,29.20
2018-12-31T21:00:52.409Z,27.50
2018-12-31T21:03:23.234Z,28.17
2018-12-31T21:05:54.050Z,26.93
2018-12-31T21:08:24.897Z,28.70
2018-12-31T21:10:55.626Z,26.70
2018-12-31T21:13:26.536Z,27.30
2018-12-31T21:15:57.441Z,27.73
2018-12-31T21:18:28.611Z,26.87
2018-12-31T21:20:59.326Z,26.37
2018-12-31T21:23:30.224Z,27.60
2018-12-31T21:26:01.031Z,28.20
2018-12-31T21:28:31.805Z,27.90
2018-12-31T21:31:02.583Z,28.57
2018-12-31T21:33:33.341Z,29.63
2018-12-31T21:36:04.145Z,30.13
2018-12-31T21:38:34.966Z,27.47
2018-12-31T21:41:05.864Z,30.27
2018-12-31T21:43:36.702Z,32.67
2018-12-31T21:46:07.460Z,32.03
2018-12-31T21:48:38.377Z,29.80
2018-12-31T21:51:09.128Z,31.57
2018-12-31T21:53:39.966Z,31.87
2018-12-31T21:56:10.844Z,31.17
2018-12-31T21:58:41.725Z,30.77
2018-12-31T22:01:12.480Z,32.10
2018-12-31T22:03:43.281Z,32.10
2018-12-31T22:06:14.020Z,32.27
2018-12-31T22:08:44.820Z,35.23
2018-12-31T22:11:15.565Z,34.00
2018-12-31T22:13:46.337Z,33.97
2018-12-31T22:16:17.394Z,32.43
2018-12-31T22:18:48.177Z,34.30
2018-12-31T22:21:18.965Z,33.50
2018-12-31T22:23:49.754Z,33.50
2018-12-31T22:26:20.545Z,33.03
2018-12-31T22:28:51.335Z,36.27
2018-12-31T22:31:22.031Z,34.60
2018-12-31T22:33:52.847Z,35.73
2018-12-31T22:36:23.582Z,34.27
2018-12-31T22:38:54.756Z,35.47
2018-12-31T22:41:25.539Z,33.63
2018-12-31T22:43:56.310Z,33.73
2018-12-31T22:46:27.031Z,31.50
2018-12-31T22:48:57.799Z,32.73
2018-12-31T22:51:28.645Z,37.37
2018-12-31T22:53:59.423Z,34.73
2018-12-31T22:56:30.125Z,36.47
2018-12-31T22:59:01.106Z,52.00
2018-12-31T23:01:32.136Z,90.27
2018-12-31T23:04:02.905Z,178.73
2018-12-31T23:06:33.865Z,239.20
2018-12-31T23:09:06.317Z,288.87
2018-12-31T23:11:37.072Z,373.53
2018-12-31T23:14:07.888Z,381.70
2018-12-31T23:16:38.775Z,208.30
2018-12-31T23:19:09.531Z,155.50
2018-12-31T23:21:40.273Z,152.13
2018-12-31T23:24:11.216Z,232.73
2018-12-31T23:26:42.012Z,279.83
2018-12-31T23:29:12.883Z,161.47
2018-12-31T23:31:43.811Z,126.70
2018-12-31T23:34:14.583Z,110.83
2018-12-31T23:36:45.322Z,105.63
2018-12-31T23:39:16.082Z,98.70
2018-12-31T23:41:46.868Z,93.90
2018-12-31T23:44:17.602Z,82.70
2018-12-31T23:46:48.687Z,80.93
2018-12-31T23:49:19.466Z,68.77
2018-12-31T23:51:50.259Z,64.60
2018-12-31T23:54:21.067Z,57.83
2018-12-31T23:56:51.797Z,55.90
2018-12-31T23:59:22.575Z,52.70
